YXBU weather

Bulwer Heliport
Bulwer, Queensland, Australia

Public forecast

Using degrees Celsius for public forecast. Weather courtesy of forecast.io.

METAR (pilot weather report)

Closest report is Brisbane International Airport, 23.0 nm (42.6 km) SW. Retrieved 2019/04/20 12:30 UTC (0 seconds ago):

YBBN 201230Z AUTO 15006KT 9999 // SCT026 BKN038 OVC063 21/20 Q1021

TAF (pilot weather forecast)

Closest forecast is Brisbane International Airport, 23.0 nm (42.6 km) SW. Retrieved 2019/04/20 12:00 UTC (24 minutes ago):

TAF YBBN 201113Z 2012/2118 17008KT 9999 -SHRA SCT015 BKN025 BKN040 FM210000 12014KT 9999 NSW SCT025 FM211000 17008KT 9999 -SHRA SCT025 SCT040 INTER 2012/2024 3000 SHRA BKN012 INTER 2114/2118 3000 SHRA BKN012